Time;durP1;ratioP1;P1;durP2;ratioP2;P2;SDS_P1;SDS_P2;PMS_P1;PMS_P2;Temp;Humidity;BMP_temperature;BMP_pressure;BME280_temperature;BME280_humidity;BME280_pressure;Samples;Min_cycle;Max_cycle;Signal;HPM_P1;HPM_P2
2022/09/22 00:00:27;;;;;;;;;;;;;;;9.01;100.00;-25318.72;4966700;28;19917;-82
2022/09/22 00:03:33;;;;;;;;;;;;;;;9.03;100.00;-25319.16;4998958;28;20068;-84
2022/09/22 00:06:38;;;;;;;;;;;;;;;9.02;100.00;-25318.88;4961709;28;20009;-86
2022/09/22 00:09:23;;;;;;;;;;;;;;;8.97;100.00;-25317.69;4991516;28;19922;-85
2022/09/22 00:12:11;;;;;;;;;;;;;;;8.90;100.00;-25315.63;4991370;28;19918;-85
2022/09/22 00:15:21;;;;;;;;;;;;;;;8.86;100.00;-25314.47;4967868;28;19973;-85
2022/09/22 00:18:31;;;;;;;;;;;;;;;8.87;100.00;-25314.75;4980553;28;20383;-87
2022/09/22 00:21:22;;;;;;;;;;;;;;;8.84;100.00;-25313.88;4991487;28;20001;-83
2022/09/22 00:24:39;;;;;;;;;;;;;;;8.86;100.00;-25314.31;4968908;28;19913;-82
2022/09/22 00:27:47;;;;;;;;;;;;;;;8.86;100.00;-25314.31;4959962;28;19923;-86
2022/09/22 00:34:02;;;;;;;;;;;;;;;8.82;100.00;-25313.13;4944272;29;19943;-86
2022/09/22 00:37:09;;;;;;;;;;;;;;;8.81;100.00;-25313.00;4938421;29;19966;-86
2022/09/22 00:40:17;;;;;;;;;;;;;;;8.81;100.00;-25313.00;4940069;29;19918;-84
2022/09/22 00:43:40;;;;;;;;;;;;;;;8.71;100.00;-25310.19;4940185;29;19922;-86
2022/09/22 00:46:50;;;;;;;;;;;;;;;8.76;100.00;-25311.50;4932308;29;19943;-83
2022/09/22 00:50:09;;;;;;;;;;;;;;;8.71;100.00;-25310.03;4966266;28;19923;-85
2022/09/22 00:53:38;;;;;;;;;;;;;;;8.69;100.00;-25309.47;4900888;29;19923;-81
2022/09/22 00:57:01;;;;;;;;;;;;;;;8.61;100.00;-25307.41;4900262;29;19920;-82
2022/09/22 01:00:17;;;;;;;;;;;;;;;8.56;100.00;-25305.91;4904811;29;20448;-85
2022/09/22 01:03:46;;;;;;;;;;;;;;;8.58;100.00;-25306.38;4910459;29;19919;-85
2022/09/22 01:07:09;;;;;;;;;;;;;;;8.55;100.00;-25305.47;4924292;29;19918;-86
2022/09/22 01:13:24;;;;;;;;;;;;;;;8.53;100.00;-25304.88;4965550;29;19926;-85
2022/09/22 01:16:23;;;;;;;;;;;;;;;8.46;100.00;-25302.84;4965594;28;19914;-85
2022/09/22 01:28:49;;;;;;;;;;;;;;;8.37;100.00;-25300.47;4983955;28;19945;-86
2022/09/22 01:31:54;;;;;;;;;;;;;;;8.37;100.00;-25300.47;5005009;28;19922;-85
2022/09/22 01:35:01;;;;;;;;;;;;;;;8.39;100.00;-25301.06;4987919;28;19932;-85
2022/09/22 01:38:37;;;;;;;;;;;;;;;8.31;100.00;-25298.69;4977416;28;19918;-85
2022/09/22 01:44:49;;;;;;;;;;;;;;;8.29;100.00;-25297.97;4892239;29;19955;-85
2022/09/22 01:51:16;;;;;;;;;;;;;;;8.22;100.00;-25296.06;4893881;29;19968;-83
2022/09/22 01:54:39;;;;;;;;;;;;;;;8.17;100.00;-25294.72;4863735;29;19920;-85
2022/09/22 02:03:56;;;;;;;;;;;;;;;8.08;100.00;-25292.06;4859899;29;20404;-83
2022/09/22 02:39:03;;;;;;;;;;;;;;;7.99;100.00;-25289.56;4987302;28;19937;-86
2022/09/22 02:42:10;;;;;;;;;;;;;;;7.98;100.00;-25289.28;4909634;29;19952;-87
2022/09/22 02:48:30;;;;;;;;;;;;;;;7.89;100.00;-25286.78;4912926;29;20001;-81
2022/09/22 02:51:41;;;;;;;;;;;;;;;7.89;100.00;-25286.78;4886012;29;19920;-81
2022/09/22 02:54:57;;;;;;;;;;;;;;;7.88;100.00;-25286.47;4814425;29;20316;-81
2022/09/22 02:58:08;;;;;;;;;;;;;;;7.86;100.00;-25285.88;4858447;29;20528;-82
2022/09/22 03:01:15;;;;;;;;;;;;;;;7.81;100.00;-25284.41;4804255;29;19925;-80
2022/09/22 03:07:28;;;;;;;;;;;;;;;7.76;100.00;-25282.94;4836537;29;19946;-87
2022/09/22 03:10:56;;;;;;;;;;;;;;;7.67;100.00;-25280.44;4867648;29;20290;-85
2022/09/22 03:14:20;;;;;;;;;;;;;;;7.65;100.00;-25279.84;4905144;29;19944;-81
2022/09/22 03:17:38;;;;;;;;;;;;;;;7.66;100.00;-25280.13;4869232;29;20021;-84
2022/09/22 03:21:03;;;;;;;;;;;;;;;7.67;100.00;-25280.28;4853191;29;19912;-87
2022/09/22 05:25:18;;;;;;;;;;;;;;;6.90;100.00;-25258.16;5034892;28;19930;-77
2022/09/22 05:28:34;;;;;;;;;;;;;;;7.04;100.00;-25262.28;5011828;28;19921;-77
2022/09/22 05:31:47;;;;;;;;;;;;;;;7.10;100.00;-25263.91;5012753;28;20060;-78
2022/09/22 05:34:52;;;;;;;;;;;;;;;7.12;100.00;-25264.66;4995296;28;19929;-77
2022/09/22 05:38:02;;;;;;;;;;;;;;;7.08;100.00;-25263.47;4993099;28;19929;-79
2022/09/22 05:40:49;;;;;;;;;;;;;;;7.11;100.00;-25264.34;5000086;28;20489;-78
2022/09/22 05:43:51;;;;;;;;;;;;;;;7.11;100.00;-25264.34;4993551;28;19972;-78
2022/09/22 05:46:45;;;;;;;;;;;;;;;7.18;100.00;-25266.28;4981053;28;19963;-78
2022/09/22 05:49:14;;;;;;;;;;;;;;;7.29;100.00;-25269.53;4990485;28;19918;-77
2022/09/22 05:51:40;;;;;;;;;;;;;;;7.34;100.00;-25271.00;4978694;28;20129;-77
2022/09/22 05:54:28;;;;;;;;;;;;;;;7.35;100.00;-25271.28;4978628;28;20030;-78
2022/09/22 05:57:05;;;;;;;;;;;;;;;7.43;100.00;-25273.50;5012606;28;19952;-78
2022/09/22 06:00:18;;;;;;;;;;;;;;;7.50;100.00;-25275.56;4998760;28;19921;-78
2022/09/22 06:02:43;;;;;;;;;;;;;;;7.54;100.00;-25276.75;4995232;28;19968;-79
2022/09/22 06:05:51;;;;;;;;;;;;;;;7.59;100.00;-25277.94;4992244;28;19925;-78
2022/09/22 06:08:45;;;;;;;;;;;;;;;7.66;100.00;-25280.00;5004405;28;19957;-78
2022/09/22 06:11:13;;;;;;;;;;;;;;;7.80;100.00;-25284.13;5010782;28;19917;-78
2022/09/22 06:14:26;;;;;;;;;;;;;;;7.91;100.00;-25287.22;4993354;28;19921;-78
2022/09/22 06:17:12;;;;;;;;;;;;;;;8.36;100.00;-25300.03;5009102;28;19914;-80
2022/09/22 06:19:49;;;;;;;;;;;;;;;8.77;100.00;-25311.94;4994806;28;19929;-79
2022/09/22 06:22:55;;;;;;;;;;;;;;;8.87;100.00;-25314.75;4981375;28;20020;-79
2022/09/22 06:25:31;;;;;;;;;;;;;;;9.46;100.00;-25331.50;5003271;28;19917;-79
2022/09/22 06:28:13;;;;;;;;;;;;;;;9.76;100.00;-25340.03;4979147;28;19925;-80
2022/09/22 06:30:39;;;;;;;;;;;;;;;10.03;100.00;-25347.97;4991552;28;20377;-79
2022/09/22 06:33:26;;;;;;;;;;;;;;;10.15;100.00;-25351.34;5014197;28;19917;-78
2022/09/22 06:36:49;;;;;;;;;;;;;;;10.17;100.00;-25351.94;5015481;28;20066;-79
2022/09/22 06:39:10;;;;;;;;;;;;;;;10.20;100.00;-25352.66;5014063;28;19917;-79
2022/09/22 06:41:38;;;;;;;;;;;;;;;10.25;100.00;-25354.13;5002596;28;20369;-80
2022/09/22 06:44:30;;;;;;;;;;;;;;;10.31;100.00;-25355.75;4999902;28;19992;-80
2022/09/22 06:47:09;;;;;;;;;;;;;;;10.11;100.00;-25350.03;5017221;28;20263;-79
2022/09/22 06:49:58;;;;;;;;;;;;;;;10.05;100.00;-25348.41;4983765;28;19933;-79
2022/09/22 06:52:38;;;;;;;;;;;;;;;10.00;100.00;-25347.09;5017147;28;19967;-80
2022/09/22 06:55:05;;;;;;;;;;;;;;;10.07;100.00;-25349.00;4982347;28;19925;-79
2022/09/22 06:57:35;;;;;;;;;;;;;;;10.09;100.00;-25349.44;5014709;28;20048;-80
2022/09/22 07:00:21;;;;;;;;;;;;;;;10.05;100.00;-25348.41;5004597;28;19963;-79
2022/09/22 07:02:49;;;;;;;;;;;;;;;10.00;100.00;-25346.94;5001440;28;19940;-79
2022/09/22 07:05:19;;;;;;;;;;;;;;;9.97;100.00;-25346.19;4999776;28;19922;-79
2022/09/22 07:07:54;;;;;;;;;;;;;;;10.06;100.00;-25348.84;5004935;28;19918;-80
2022/09/22 07:10:19;;;;;;;;;;;;;;;10.25;100.00;-25354.13;5002037;28;20404;-79
2022/09/22 07:12:47;;;;;;;;;;;;;;;10.19;100.00;-25352.50;4987846;28;19928;-79
2022/09/22 07:15:13;;;;;;;;;;;;;;;10.10;100.00;-25349.88;5002096;28;19940;-80
2022/09/22 07:17:41;;;;;;;;;;;;;;;10.19;100.00;-25352.38;5002600;28;19917;-80
2022/09/22 07:20:07;;;;;;;;;;;;;;;10.19;100.00;-25352.38;5020020;28;19936;-79
2022/09/22 07:22:38;;;;;;;;;;;;;;;10.28;100.00;-25354.88;5018322;28;19963;-79
2022/09/22 07:25:05;;;;;;;;;;;;;;;10.35;100.00;-25356.94;4984817;28;19932;-80
2022/09/22 07:27:30;;;;;;;;;;;;;;;10.53;100.00;-25362.22;4999861;28;19921;-79
2022/09/22 07:29:56;;;;;;;;;;;;;;;10.64;100.00;-25365.28;4999040;28;20358;-80
2022/09/22 07:32:31;;;;;;;;;;;;;;;10.67;100.00;-25366.00;4998015;28;19917;-80
2022/09/22 07:34:56;;;;;;;;;;;;;;;10.72;100.00;-25367.63;4998676;28;19917;-79
2022/09/22 07:37:22;;;;;;;;;;;;;;;10.70;100.00;-25367.03;4998577;28;19921;-78
2022/09/22 07:39:48;;;;;;;;;;;;;;;10.71;100.00;-25367.34;4999070;28;19914;-79
2022/09/22 07:42:13;;;;;;;;;;;;;;;10.80;100.00;-25367.78;4998548;28;19989;-78
2022/09/22 07:48:35;;;;;;;;;;;;;;;11.21;100.00;-25379.50;5015199;28;19932;-79
2022/09/22 07:50:08;;;;;;;;;;;;;;;11.46;100.00;-24406.19;5013915;28;20289;-80
2022/09/22 07:52:33;;;;;;;;;;;;;;;12.13;100.00;-24096.91;4996319;28;20018;-81
2022/09/22 07:54:59;;;;;;;;;;;;;;;12.70;100.00;-20506.66;4996706;28;19914;-78
2022/09/22 07:57:24;;;;;;;;;;;;;;;13.24;100.00;-15591.97;4996253;28;19956;-77
2022/09/22 07:59:50;;;;;;;;;;;;;;;13.91;100.00;-9674.91;4996263;28;19944;-77
2022/09/22 08:02:15;;;;;;;;;;;;;;;14.20;100.00;555.66;4995740;28;19967;-77
2022/09/22 08:04:40;;;;;;;;;;;;;;;14.78;100.00;14481.28;4996508;28;19917;-79
2022/09/22 08:07:06;;;;;;;;;;;;;;;14.76;100.00;40460.78;5012900;28;19924;-76
2022/09/22 08:09:32;;;;;;;;;;;;;;;15.72;100.00;72797.41;4996741;28;19917;-80
2022/09/22 08:11:57;;;;;;;;;;;;;;;15.68;100.00;120650.69;4996657;28;19924;-80
2022/09/22 08:14:23;;;;;;;;;;;;;;;15.85;100.00;146721.09;5012580;28;19918;-79
2022/09/22 08:16:50;;;;;;;;;;;;;;;15.91;100.00;146736.41;4996042;28;20326;-78
2022/09/22 08:19:15;;;;;;;;;;;;;;;16.20;100.00;146807.91;4996236;28;19928;-80
2022/09/22 08:21:46;;;;;;;;;;;;;;;16.39;100.00;146853.91;4995403;28;19918;-81
2022/09/22 08:24:14;;;;;;;;;;;;;;;16.56;100.00;146897.31;4979724;28;19961;-79
2022/09/22 08:26:42;;;;;;;;;;;;;;;16.60;100.00;146906.28;4980077;28;20394;-79
2022/09/22 08:29:12;;;;;;;;;;;;;;;16.46;100.00;146873.06;4995698;28;19917;-79
2022/09/22 08:31:39;;;;;;;;;;;;;;;17.15;100.00;147043.06;5014874;28;19913;-80
2022/09/22 08:34:05;;;;;;;;;;;;;;;17.18;100.00;147050.72;4996185;28;19917;-79
2022/09/22 08:36:30;;;;;;;;;;;;;;;17.28;100.00;147075.03;4996039;28;19913;-79
2022/09/22 08:39:18;;;;;;;;;;;;;;;16.98;100.00;147002.19;4997754;28;19918;-81
2022/09/22 08:41:48;;;;;;;;;;;;;;;17.09;100.00;147029.03;5010052;28;19928;-80
2022/09/22 08:44:22;;;;;;;;;;;;;;;17.14;100.00;147040.53;4996172;28;19960;-81
2022/09/22 08:46:48;;;;;;;;;;;;;;;16.43;100.00;146865.38;4995968;28;19987;-80
2022/09/22 08:52:17;;;;;;;;;;;;;;;16.74;100.00;146942.06;5013986;28;19944;-79
2022/09/22 08:54:43;;;;;;;;;;;;;;;16.46;100.00;146871.78;4994899;28;19978;-78
2022/09/22 08:57:18;;;;;;;;;;;;;;;16.21;100.00;146810.47;4995782;28;19918;-78
2022/09/22 08:59:51;;;;;;;;;;;;;;;16.12;100.00;146788.75;4995634;28;19925;-78
2022/09/22 09:02:22;;;;;;;;;;;;;;;15.92;100.00;146737.66;4994714;28;19963;-78
2022/09/22 09:05:07;;;;;;;;;;;;;;;15.98;100.00;146753.00;5012438;28;20371;-77
2022/09/22 09:07:56;;;;;;;;;;;;;;;16.00;100.00;146758.09;4995240;28;19940;-79
2022/09/22 09:10:40;;;;;;;;;;;;;;;16.02;100.00;146763.22;5009756;28;19968;-80
2022/09/22 09:13:25;;;;;;;;;;;;;;;15.67;100.00;146676.31;4995334;28;19992;-78
2022/09/22 09:15:53;;;;;;;;;;;;;;;15.75;100.00;146696.78;4996846;28;19933;-78
2022/09/22 09:18:21;;;;;;;;;;;;;;;15.94;100.00;146742.75;5012970;28;19948;-80
2022/09/22 09:20:48;;;;;;;;;;;;;;;16.05;100.00;146770.91;4995524;28;19929;-79
2022/09/22 09:23:19;;;;;;;;;;;;;;;16.11;100.00;146786.22;4995969;28;19974;-79
2022/09/22 09:26:25;;;;;;;;;;;;;;;16.01;100.00;146759.41;5026911;28;19921;-81
2022/09/22 09:42:23;;;;;;;;;;;;;;;15.96;100.00;146747.91;5016425;28;19932;-83
2022/09/22 09:48:39;;;;;;;;;;;;;;;15.76;100.00;146699.31;5017166;28;19929;-81
2022/09/22 09:54:51;;;;;;;;;;;;;;;16.02;100.00;146763.22;4997319;28;20032;-81
2022/09/22 09:57:19;;;;;;;;;;;;;;;15.89;100.00;146730.00;4987011;28;20413;-80
2022/09/22 10:03:12;;;;;;;;;;;;;;;16.25;100.00;146819.41;5019293;28;19999;-81
2022/09/22 10:15:50;;;;;;;;;;;;;;;16.62;100.00;146911.38;4925550;29;20024;-81
2022/09/22 10:19:00;;;;;;;;;;;;;;;16.59;100.00;146903.72;4955918;29;19923;-80
2022/09/22 10:22:19;;;;;;;;;;;;;;;16.99;100.00;147004.72;4939848;29;19919;-82
2022/09/22 10:25:23;;;;;;;;;;;;;;;16.96;100.00;146997.03;4908008;29;19920;-84
2022/09/22 10:31:37;;;;;;;;;;;;;;;16.75;100.00;146944.63;4903453;29;19975;-82
2022/09/22 10:40:27;;;;;;;;;;;;;;;17.09;100.00;147029.03;4942562;29;20015;-80
2022/09/22 10:46:36;;;;;;;;;;;;;;;17.54;100.00;147140.19;4921208;29;20383;-82
2022/09/22 10:49:50;;;;;;;;;;;;;;;17.56;100.00;147146.59;4908287;29;19926;-80
2022/09/22 11:43:21;;;;;;;;;;;;;;;18.43;100.00;147361.53;4959016;28;20751;-82
2022/09/22 12:21:32;;;;;;;;;;;;;;;18.45;100.00;147366.63;5036045;28;19930;-84
2022/09/22 12:24:17;;;;;;;;;;;;;;;18.61;100.00;147407.59;5031940;28;19927;-84
2022/09/22 12:26:45;;;;;;;;;;;;;;;18.92;100.00;147484.38;5017029;28;19921;-83
2022/09/22 12:29:28;;;;;;;;;;;;;;;19.11;100.00;147530.47;5020371;28;19991;-83
2022/09/22 12:31:59;;;;;;;;;;;;;;;18.94;100.00;147488.22;5024092;28;19944;-80
2022/09/22 12:34:51;;;;;;;;;;;;;;;18.97;100.00;147495.91;5021372;28;19928;-82
2022/09/22 12:37:32;;;;;;;;;;;;;;;18.95;100.00;147492.06;5036123;28;19920;-83
2022/09/22 12:40:13;;;;;;;;;;;;;;;18.76;100.00;147443.41;5020363;28;19917;-83
2022/09/22 12:42:43;;;;;;;;;;;;;;;18.68;100.00;147422.97;5019139;28;20018;-80
2022/09/22 12:58:50;;;;;;;;;;;;;;;18.46;100.00;147369.22;4967608;28;20847;-85
2022/09/22 13:01:55;;;;;;;;;;;;;;;18.52;100.00;147383.25;4977057;28;20085;-82
2022/09/22 13:08:08;;;;;;;;;;;;;;;18.50;100.00;147379.41;4982033;28;19929;-84
2022/09/22 13:14:29;;;;;;;;;;;;;;;18.91;100.00;147480.53;4993414;28;19964;-85
2022/09/22 13:16:57;;;;;;;;;;;;;;;18.82;100.00;147460.03;4980554;28;19940;-82
2022/09/22 13:23:10;;;;;;;;;;;;;;;18.81;100.00;147457.47;5009952;28;20020;-83
2022/09/22 13:26:22;;;;;;;;;;;;;;;18.58;100.00;147398.59;4983338;28;19932;-86
2022/09/22 13:29:06;;;;;;;;;;;;;;;18.65;100.00;147417.81;4979225;28;19918;-81
2022/09/22 13:34:37;;;;;;;;;;;;;;;18.84;100.00;147465.19;5000923;28;19921;-80
2022/09/22 13:37:42;;;;;;;;;;;;;;;18.74;100.00;147438.31;4963603;29;20395;-83
2022/09/22 13:40:12;;;;;;;;;;;;;;;18.87;100.00;147471.59;4944733;29;19922;-82
2022/09/22 13:42:41;;;;;;;;;;;;;;;18.77;100.00;147446.00;4946775;29;19922;-84
2022/09/22 13:45:32;;;;;;;;;;;;;;;18.93;100.00;147486.97;4961985;29;19922;-82
2022/09/22 13:54:41;;;;;;;;;;;;;;;18.95;100.00;147490.78;4923969;29;20041;-81
2022/09/22 13:58:09;;;;;;;;;;;;;;;18.92;100.00;147484.38;4932012;29;19933;-84
2022/09/22 14:04:28;;;;;;;;;;;;;;;18.75;100.00;147442.16;4888525;29;19934;-83
2022/09/22 14:07:40;;;;;;;;;;;;;;;18.77;100.00;147446.00;4881213;29;19995;-85
2022/09/22 14:14:15;;;;;;;;;;;;;;;18.86;100.00;147467.75;4907078;29;20057;-82
2022/09/22 14:30:05;;;;;;;;;;;;;;;18.20;100.00;147305.22;4905341;29;20002;-81
2022/09/22 14:39:37;;;;;;;;;;;;;;;18.36;100.00;147344.88;5003364;28;19945;-81
2022/09/22 14:42:50;;;;;;;;;;;;;;;18.55;100.00;147390.94;5000795;28;19953;-84
2022/09/22 14:46:02;;;;;;;;;;;;;;;18.52;100.00;147384.56;4990012;28;19961;-83
2022/09/22 18:43:20;;;;;;;;;;;;;;;13.78;100.00;146208.06;5018459;28;20113;-81
2022/09/22 18:49:39;;;;;;;;;;;;;;;13.73;100.00;146195.25;4958992;28;19990;-84
2022/09/22 18:55:33;;;;;;;;;;;;;;;13.64;100.00;141042.78;4977127;28;20330;-85
2022/09/22 18:58:42;;;;;;;;;;;;;;;13.61;100.00;133859.50;4938586;29;19978;-82
2022/09/22 19:01:48;;;;;;;;;;;;;;;13.62;100.00;120908.38;4964154;28;20651;-82
2022/09/22 19:04:39;;;;;;;;;;;;;;;13.64;100.00;118871.06;4953248;28;19922;-79
2022/09/22 19:07:49;;;;;;;;;;;;;;;13.59;100.00;118520.44;4949264;29;19922;-79
2022/09/22 19:11:03;;;;;;;;;;;;;;;13.48;100.00;98482.06;4953493;28;19918;-80
2022/09/22 19:14:09;;;;;;;;;;;;;;;13.43;100.00;83951.25;4988249;28;19957;-80
2022/09/22 19:17:23;;;;;;;;;;;;;;;13.38;100.00;69809.31;4992993;28;19937;-80
2022/09/22 19:20:08;;;;;;;;;;;;;;;13.34;100.00;60074.50;4992982;28;20034;-80
2022/09/22 19:22:59;;;;;;;;;;;;;;;13.33;100.00;53042.16;4993450;28;19918;-79
2022/09/22 19:25:51;;;;;;;;;;;;;;;13.32;100.00;43686.94;4956942;28;19926;-80
2022/09/22 19:28:53;;;;;;;;;;;;;;;13.28;100.00;34018.75;4984510;28;19929;-78
2022/09/22 19:31:44;;;;;;;;;;;;;;;13.14;100.00;23706.50;4997258;28;19976;-80
2022/09/22 19:34:55;;;;;;;;;;;;;;;13.09;100.00;13429.38;4994949;28;19918;-80
2022/09/22 19:38:05;;;;;;;;;;;;;;;13.07;100.00;5162.69;5010793;28;19945;-80
2022/09/22 19:40:59;;;;;;;;;;;;;;;13.07;100.00;-118.44;5012526;28;19956;-80
2022/09/22 19:44:06;;;;;;;;;;;;;;;13.02;100.00;-5392.47;5013078;28;19918;-81
2022/09/22 19:47:06;;;;;;;;;;;;;;;13.01;100.00;-10329.69;5007918;28;20210;-79
2022/09/22 19:53:22;;;;;;;;;;;;;;;12.82;100.00;-14272.84;5014751;28;20015;-79
2022/09/22 19:56:09;;;;;;;;;;;;;;;12.84;100.00;-15258.44;5013652;28;19978;-78
2022/09/22 19:59:07;;;;;;;;;;;;;;;12.86;100.00;-14930.19;5023433;28;19930;-78
2022/09/22 20:02:20;;;;;;;;;;;;;;;12.83;100.00;-14929.91;5034683;28;19960;-78
2022/09/22 20:05:20;;;;;;;;;;;;;;;12.85;100.00;-16900.28;5033051;28;20444;-80
2022/09/22 20:08:38;;;;;;;;;;;;;;;12.71;100.00;-19195.03;5032842;28;19939;-79
2022/09/22 20:11:15;;;;;;;;;;;;;;;12.66;100.00;-20833.78;5031598;28;19970;-79
2022/09/22 20:14:24;;;;;;;;;;;;;;;12.61;100.00;-22143.63;5017445;28;20361;-82
2022/09/22 20:17:33;;;;;;;;;;;;;;;12.47;100.00;-24760.72;5030609;28;19928;-78
2022/09/22 20:20:45;;;;;;;;;;;;;;;12.36;100.00;-25414.34;5033536;28;19925;-79
2022/09/22 20:23:19;;;;;;;;;;;;;;;12.39;100.00;-25415.22;5029015;28;19921;-81
2022/09/22 20:26:13;;;;;;;;;;;;;;;12.38;100.00;-25414.78;5015285;28;20533;-78
2022/09/22 20:29:35;;;;;;;;;;;;;;;12.37;100.00;-25414.50;5025022;28;19921;-79
2022/09/22 20:32:51;;;;;;;;;;;;;;;12.28;100.00;-25412.00;5014102;28;19927;-80
2022/09/22 20:35:55;;;;;;;;;;;;;;;12.16;100.00;-25408.66;5009830;28;19932;-79
2022/09/22 20:38:40;;;;;;;;;;;;;;;12.21;100.00;-25410.13;5013648;28;20278;-79
2022/09/22 20:41:41;;;;;;;;;;;;;;;12.16;100.00;-25408.66;5009632;28;20647;-80
2022/09/22 20:44:48;;;;;;;;;;;;;;;12.15;100.00;-25408.34;5014087;28;19921;-80
2022/09/22 20:47:53;;;;;;;;;;;;;;;12.11;100.00;-25407.19;4916929;29;19955;-77
2022/09/22 20:51:01;;;;;;;;;;;;;;;12.05;100.00;-25405.28;4911856;29;19919;-79
2022/09/22 20:54:11;;;;;;;;;;;;;;;12.00;100.00;-25403.97;4903115;29;19919;-80
2022/09/22 20:57:19;;;;;;;;;;;;;;;12.00;100.00;-25404.13;4935308;29;19923;-81
2022/09/22 21:03:00;;;;;;;;;;;;;;;11.94;100.00;-25402.34;4974657;28;19976;-80
2022/09/22 21:06:16;;;;;;;;;;;;;;;11.96;100.00;-25402.94;4951665;28;20033;-80
2022/09/22 21:12:32;;;;;;;;;;;;;;;12.05;100.00;-25405.44;4890947;29;20633;-81
2022/09/22 21:15:38;;;;;;;;;;;;;;;11.95;100.00;-25402.50;4897549;29;19923;-81
2022/09/22 21:18:43;;;;;;;;;;;;;;;11.85;100.00;-25399.72;4896030;29;19923;-80
2022/09/22 21:21:52;;;;;;;;;;;;;;;11.71;100.00;-25395.75;4894031;29;20010;-83
2022/09/22 21:25:02;;;;;;;;;;;;;;;11.73;100.00;-25396.34;4898218;28;20005;-81
2022/09/22 21:28:30;;;;;;;;;;;;;;;11.72;100.00;-25395.91;4935335;29;20057;-80
2022/09/22 21:31:40;;;;;;;;;;;;;;;11.73;100.00;-25396.19;4894871;29;19924;-81
2022/09/22 21:34:51;;;;;;;;;;;;;;;11.81;100.00;-25398.69;4881312;29;19939;-81
2022/09/22 21:37:39;;;;;;;;;;;;;;;11.81;100.00;-25398.53;4896336;29;19919;-81
2022/09/22 21:40:56;;;;;;;;;;;;;;;11.86;100.00;-25400.16;4889404;29;19932;-80
2022/09/22 21:44:16;;;;;;;;;;;;;;;11.84;100.00;-25399.56;4940342;29;19965;-80
2022/09/22 21:47:14;;;;;;;;;;;;;;;11.79;100.00;-25398.09;4938763;29;20037;-83
2022/09/22 21:53:33;;;;;;;;;;;;;;;11.73;100.00;-25396.19;4957551;28;19957;-79
2022/09/22 21:56:49;;;;;;;;;;;;;;;11.75;100.00;-25396.78;4976774;28;20011;-79
2022/09/22 23:19:39;;;;;;;;;;;;;;;11.57;100.00;-12291.66;5044566;28;19936;-82
2022/09/22 23:32:33;;;;;;;;;;;;;;;11.54;100.00;-14586.78;5032000;28;20005;-83
2022/09/22 23:41:51;;;;;;;;;;;;;;;11.47;100.00;-16224.50;4991239;28;19928;-81
2022/09/22 23:45:08;;;;;;;;;;;;;;;11.44;100.00;-16551.69;4970053;28;19925;-80
2022/09/22 23:51:18;;;;;;;;;;;;;;;11.39;100.00;-17533.41;4918286;29;19973;-78
2022/09/22 23:54:32;;;;;;;;;;;;;;;11.42;100.00;-17533.97;4903858;29;19923;-79
2022/09/22 23:57:39;;;;;;;;;;;;;;;11.42;100.00;-18516.31;4879311;29;19981;-78
